Time;durP1;ratioP1;P1;durP2;ratioP2;P2;SDS_P1;SDS_P2;PMS_P1;PMS_P2;Temp;Humidity;BMP_temperature;BMP_pressure;BME280_temperature;BME280_humidity;BME280_pressure;Samples;Min_cycle;Max_cycle;Signal;HPM_P1;HPM_P2
2024/01/20 00:01:02;;;;;;;79.10;24.80;;;;;;;;;;4942033;29;19911;-57
2024/01/20 00:03:28;;;;;;;78.13;27.87;;;;;;;;;;4959051;29;20032;-56
2024/01/20 00:05:53;;;;;;;101.25;27.02;;;;;;;;;;4960801;29;20040;-55
2024/01/20 00:08:19;;;;;;;73.60;27.77;;;;;;;;;;4956645;29;20050;-57
2024/01/20 00:10:44;;;;;;;60.63;21.75;;;;;;;;;;4956600;29;20039;-59
2024/01/20 00:13:09;;;;;;;59.60;22.90;;;;;;;;;;4963429;29;20059;-54
2024/01/20 00:15:36;;;;;;;78.25;26.48;;;;;;;;;;4959642;29;20035;-57
2024/01/20 00:18:01;;;;;;;69.47;23.70;;;;;;;;;;4963469;29;20047;-57
2024/01/20 00:20:27;;;;;;;89.38;30.10;;;;;;;;;;4956423;29;20031;-57
2024/01/20 00:22:52;;;;;;;67.63;21.57;;;;;;;;;;4940608;29;20040;-58
2024/01/20 00:25:18;;;;;;;77.35;26.77;;;;;;;;;;4956200;29;20055;-59
2024/01/20 00:27:44;;;;;;;90.67;26.13;;;;;;;;;;4960612;29;20038;-57
2024/01/20 00:30:09;;;;;;;80.03;26.33;;;;;;;;;;4939473;29;20322;-58
2024/01/20 00:32:35;;;;;;;79.88;27.67;;;;;;;;;;4962227;29;20272;-59
2024/01/20 00:35:02;;;;;;;76.97;28.05;;;;;;;;;;4958222;29;20031;-57
2024/01/20 00:37:28;;;;;;;87.65;27.73;;;;;;;;;;4956344;29;20099;-59
2024/01/20 00:39:53;;;;;;;73.70;27.33;;;;;;;;;;4956054;29;20071;-57
2024/01/20 00:42:19;;;;;;;76.75;28.25;;;;;;;;;;4958397;29;20035;-58
2024/01/20 00:44:44;;;;;;;89.60;28.38;;;;;;;;;;4960374;29;20048;-60
2024/01/20 00:47:09;;;;;;;70.93;26.03;;;;;;;;;;4968374;29;20032;-58
2024/01/20 00:49:35;;;;;;;78.00;26.05;;;;;;;;;;4942904;29;20024;-59
2024/01/20 00:52:01;;;;;;;75.97;26.30;;;;;;;;;;4959798;29;20070;-59
2024/01/20 00:54:26;;;;;;;74.82;25.38;;;;;;;;;;4959529;29;20036;-59
2024/01/20 00:56:52;;;;;;;67.68;24.60;;;;;;;;;;4965663;29;20046;-54
2024/01/20 00:59:18;;;;;;;84.47;26.90;;;;;;;;;;4959711;29;20040;-56
2024/01/20 01:01:43;;;;;;;76.10;27.70;;;;;;;;;;4959731;29;20039;-58
2024/01/20 01:04:08;;;;;;;73.43;24.63;;;;;;;;;;4959736;29;20107;-55
2024/01/20 01:06:34;;;;;;;71.85;25.05;;;;;;;;;;4966916;29;20032;-59
2024/01/20 01:08:59;;;;;;;85.13;27.50;;;;;;;;;;4944443;29;20095;-56
2024/01/20 01:11:25;;;;;;;75.55;25.33;;;;;;;;;;4959330;29;20040;-57
2024/01/20 01:13:50;;;;;;;78.65;26.05;;;;;;;;;;4945472;29;20036;-59
2024/01/20 01:16:16;;;;;;;74.37;23.17;;;;;;;;;;4960332;29;20032;-59
2024/01/20 01:18:42;;;;;;;64.57;19.27;;;;;;;;;;4960182;29;20290;-58
2024/01/20 01:21:07;;;;;;;71.73;24.13;;;;;;;;;;4959117;29;20270;-59
2024/01/20 01:23:33;;;;;;;65.97;22.73;;;;;;;;;;4966427;29;20095;-57
2024/01/20 01:25:58;;;;;;;71.67;23.33;;;;;;;;;;4961407;29;20055;-56
2024/01/20 01:28:23;;;;;;;69.45;24.88;;;;;;;;;;4958344;29;20087;-58
2024/01/20 01:30:49;;;;;;;82.95;26.52;;;;;;;;;;4958987;29;20024;-58
2024/01/20 01:33:15;;;;;;;76.68;28.40;;;;;;;;;;4958704;29;20031;-54
2024/01/20 01:35:40;;;;;;;71.95;23.33;;;;;;;;;;4962999;29;20047;-58
2024/01/20 01:38:05;;;;;;;76.70;24.47;;;;;;;;;;4945361;29;20047;-53
2024/01/20 01:40:31;;;;;;;58.45;19.33;;;;;;;;;;4958760;29;20209;-58
2024/01/20 01:42:57;;;;;;;86.18;27.65;;;;;;;;;;4959655;29;20059;-58
2024/01/20 01:45:23;;;;;;;69.22;22.58;;;;;;;;;;4942376;29;20050;-55
2024/01/20 01:47:50;;;;;;;88.18;27.30;;;;;;;;;;4961712;29;20055;-56
2024/01/20 01:50:15;;;;;;;;;;;;;;;;;;4963614;29;20091;-56
2024/01/20 01:52:42;;;;;;;71.43;22.20;;;;;;;;;;4958178;29;19915;-58
2024/01/20 01:55:07;;;;;;;78.38;24.58;;;;;;;;;;4958105;29;20042;-55
2024/01/20 01:57:34;;;;;;;76.80;25.98;;;;;;;;;;4958631;29;20031;-57
2024/01/20 01:59:59;;;;;;;;;;;;;;;;;;4959066;29;20041;-54
2024/01/20 02:02:25;;;;;;;68.90;25.03;;;;;;;;;;4958330;29;19918;-59
2024/01/20 02:04:51;;;;;;;65.78;21.88;;;;;;;;;;4949013;29;20036;-57
2024/01/20 02:07:16;;;;;;;79.37;23.23;;;;;;;;;;4960004;29;20036;-57
2024/01/20 02:09:44;;;;;;;61.40;17.33;;;;;;;;;;4958352;29;20055;-57
2024/01/20 02:12:09;;;;;;;72.35;21.25;;;;;;;;;;4957989;29;20042;-58
2024/01/20 02:14:35;;;;;;;58.70;21.30;;;;;;;;;;4960452;29;20092;-57
2024/01/20 02:17:00;;;;;;;67.43;25.27;;;;;;;;;;4958044;29;20040;-54
2024/01/20 02:19:26;;;;;;;69.15;20.88;;;;;;;;;;4958080;29;20024;-52
2024/01/20 02:21:51;;;;;;;69.67;23.27;;;;;;;;;;4946577;29;20035;-56
2024/01/20 02:24:17;;;;;;;60.63;21.83;;;;;;;;;;4961565;29;20043;-59
2024/01/20 02:26:42;;;;;;;60.60;19.92;;;;;;;;;;4967535;29;20094;-58
2024/01/20 02:29:08;;;;;;;70.97;23.00;;;;;;;;;;4957982;29;20035;-57
2024/01/20 02:31:33;;;;;;;59.37;19.80;;;;;;;;;;4962168;29;20040;-58
2024/01/20 02:34:00;;;;;;;52.47;19.50;;;;;;;;;;4958120;29;20277;-57
2024/01/20 02:36:25;;;;;;;64.70;21.73;;;;;;;;;;4962666;29;20783;-57
2024/01/20 02:38:51;;;;;;;75.00;23.00;;;;;;;;;;4957308;29;20035;-56
2024/01/20 02:41:17;;;;;;;64.90;22.70;;;;;;;;;;4957388;29;20281;-58
2024/01/20 02:43:42;;;;;;;64.27;21.50;;;;;;;;;;4964907;29;20040;-55
2024/01/20 02:46:08;;;;;;;63.67;21.27;;;;;;;;;;4959540;29;20288;-59
2024/01/20 02:48:33;;;;;;;64.07;19.85;;;;;;;;;;4957486;29;20345;-60
2024/01/20 02:50:59;;;;;;;64.73;19.67;;;;;;;;;;4967069;29;20039;-56
2024/01/20 02:53:25;;;;;;;62.95;21.23;;;;;;;;;;4957596;29;20071;-59
2024/01/20 02:55:51;;;;;;;61.72;22.17;;;;;;;;;;4957019;29;20057;-56
2024/01/20 02:58:17;;;;;;;64.83;20.87;;;;;;;;;;4957655;29;20031;-58
2024/01/20 03:00:43;;;;;;;78.07;24.85;;;;;;;;;;4957026;29;20278;-57
2024/01/20 03:03:09;;;;;;;60.67;21.30;;;;;;;;;;4957521;29;20086;-57
2024/01/20 03:05:35;;;;;;;58.10;21.33;;;;;;;;;;4957948;29;20035;-57
2024/01/20 03:08:00;;;;;;;57.72;19.60;;;;;;;;;;4964046;29;20107;-60
2024/01/20 03:10:26;;;;;;;59.17;19.58;;;;;;;;;;4956794;29;20031;-58
2024/01/20 03:12:52;;;;;;;69.40;23.52;;;;;;;;;;4957291;29;20059;-59
2024/01/20 03:15:18;;;;;;;73.03;23.85;;;;;;;;;;4958250;29;20075;-58
2024/01/20 03:17:43;;;;;;;48.83;16.15;;;;;;;;;;4968167;29;20031;-58
2024/01/20 03:20:08;;;;;;;49.57;16.47;;;;;;;;;;4956799;29;20052;-57
2024/01/20 03:22:34;;;;;;;62.53;19.83;;;;;;;;;;4957227;29;20051;-59
2024/01/20 03:24:59;;;;;;;61.67;19.83;;;;;;;;;;4956480;29;20068;-57
2024/01/20 03:27:24;;;;;;;68.70;21.40;;;;;;;;;;4961770;29;20032;-58
2024/01/20 03:29:50;;;;;;;65.10;21.63;;;;;;;;;;4956813;29;20047;-57
2024/01/20 03:32:16;;;;;;;68.35;20.98;;;;;;;;;;4957037;29;20302;-59
2024/01/20 03:34:41;;;;;;;76.97;22.57;;;;;;;;;;4961309;29;20046;-58
2024/01/20 03:37:07;;;;;;;73.83;22.30;;;;;;;;;;4959345;29;20035;-58
2024/01/20 03:39:33;;;;;;;56.20;20.45;;;;;;;;;;4961060;29;20266;-60
2024/01/20 03:41:58;;;;;;;49.30;19.37;;;;;;;;;;4963219;29;20042;-58
2024/01/20 03:44:24;;;;;;;60.45;20.05;;;;;;;;;;4958002;29;20070;-58
2024/01/20 03:46:49;;;;;;;66.50;20.52;;;;;;;;;;4963775;29;20036;-59
2024/01/20 03:49:15;;;;;;;60.95;20.85;;;;;;;;;;4959271;29;20055;-57
2024/01/20 03:51:41;;;;;;;64.82;22.63;;;;;;;;;;4956903;29;20110;-59
2024/01/20 03:54:08;;;;;;;61.50;20.87;;;;;;;;;;4956592;29;20024;-53
2024/01/20 03:56:40;;;;;;;64.60;21.25;;;;;;;;;;4968645;29;20058;-58
2024/01/20 03:59:06;;;;;;;70.95;22.10;;;;;;;;;;4960779;29;20078;-58
2024/01/20 04:01:32;;;;;;;58.20;19.17;;;;;;;;;;4956673;29;20062;-57
2024/01/20 04:03:57;;;;;;;55.28;17.00;;;;;;;;;;4956430;29;20042;-57
2024/01/20 04:06:23;;;;;;;60.15;18.90;;;;;;;;;;4944311;29;20091;-59
2024/01/20 04:08:48;;;;;;;60.35;19.50;;;;;;;;;;4959425;29;20046;-57
2024/01/20 04:11:14;;;;;;;64.73;20.07;;;;;;;;;;4956334;29;20051;-58
2024/01/20 04:13:39;;;;;;;52.58;19.35;;;;;;;;;;4956260;29;20031;-55
2024/01/20 04:16:04;;;;;;;53.37;16.90;;;;;;;;;;4967834;28;20032;-57
2024/01/20 04:18:30;;;;;;;64.18;21.02;;;;;;;;;;4959839;29;20035;-60
2024/01/20 04:20:56;;;;;;;67.00;19.92;;;;;;;;;;4960320;29;20036;-56
2024/01/20 04:23:21;;;;;;;56.17;17.50;;;;;;;;;;4959987;29;20043;-61
2024/01/20 04:25:46;;;;;;;65.27;20.77;;;;;;;;;;4960013;29;20070;-59
2024/01/20 04:28:12;;;;;;;64.53;21.60;;;;;;;;;;4975907;29;20027;-58
2024/01/20 04:30:39;;;;;;;56.17;20.08;;;;;;;;;;4960271;29;20067;-59
2024/01/20 04:33:04;;;;;;;66.67;20.37;;;;;;;;;;4960210;29;20028;-58
2024/01/20 04:35:29;;;;;;;59.63;20.30;;;;;;;;;;4963465;29;20273;-56
2024/01/20 04:37:55;;;;;;;66.27;22.13;;;;;;;;;;4968382;29;20039;-59
2024/01/20 04:40:21;;;;;;;64.30;21.60;;;;;;;;;;4959459;29;20268;-58
2024/01/20 04:42:46;;;;;;;59.17;19.73;;;;;;;;;;4960044;29;20036;-55
2024/01/20 04:45:13;;;;;;;62.47;20.13;;;;;;;;;;4961927;29;20043;-55
2024/01/20 04:47:38;;;;;;;64.95;20.83;;;;;;;;;;4972584;29;20109;-58
2024/01/20 04:50:04;;;;;;;70.05;20.70;;;;;;;;;;4960115;29;20036;-57
2024/01/20 04:52:30;;;;;;;64.00;20.70;;;;;;;;;;4953425;29;20047;-59
2024/01/20 04:54:56;;;;;;;44.35;16.52;;;;;;;;;;4959600;29;20032;-59
2024/01/20 04:57:21;;;;;;;48.57;16.83;;;;;;;;;;4962651;29;20051;-57
2024/01/20 04:59:50;;;;;;;62.77;21.23;;;;;;;;;;4959600;29;20258;-56
2024/01/20 05:02:15;;;;;;;62.15;21.90;;;;;;;;;;4959500;29;20313;-57
2024/01/20 05:04:41;;;;;;;66.30;21.15;;;;;;;;;;4958970;29;20035;-58
2024/01/20 05:07:06;;;;;;;55.50;17.57;;;;;;;;;;4954307;29;20032;-54
2024/01/20 05:09:32;;;;;;;58.67;20.50;;;;;;;;;;4959255;29;20148;-58
2024/01/20 05:11:57;;;;;;;53.07;18.63;;;;;;;;;;4959136;29;20031;-55
2024/01/20 05:14:23;;;;;;;72.67;20.47;;;;;;;;;;4959149;29;20277;-58
2024/01/20 05:16:48;;;;;;;65.43;20.40;;;;;;;;;;4958777;29;20270;-57
2024/01/20 05:19:13;;;;;;;57.50;18.10;;;;;;;;;;4966054;29;20281;-57
2024/01/20 05:21:39;;;;;;;62.20;21.77;;;;;;;;;;4959037;29;20043;-58
2024/01/20 05:24:05;;;;;;;56.97;19.93;;;;;;;;;;4959371;29;20043;-57
2024/01/20 05:26:30;;;;;;;67.35;20.77;;;;;;;;;;4960020;29;20130;-58
2024/01/20 05:28:56;;;;;;;67.18;19.52;;;;;;;;;;4958280;29;20032;-60
2024/01/20 05:31:23;;;;;;;61.50;20.33;;;;;;;;;;4955329;29;20095;-59
2024/01/20 05:33:48;;;;;;;57.20;21.80;;;;;;;;;;4959204;29;20272;-59
2024/01/20 05:36:15;;;;;;;62.57;20.23;;;;;;;;;;4949926;29;20063;-60
2024/01/20 05:38:40;;;;;;;65.93;20.20;;;;;;;;;;4963140;29;20036;-57
2024/01/20 05:41:06;;;;;;;70.00;20.80;;;;;;;;;;4958708;29;20067;-56
2024/01/20 05:43:32;;;;;;;;;;;;;;;;;;4959207;29;20046;-59
2024/01/20 05:45:57;;;;;;;57.30;19.60;;;;;;;;;;4952726;29;19946;-58
2024/01/20 05:48:23;;;;;;;78.03;22.52;;;;;;;;;;4965626;29;20043;-59
2024/01/20 05:50:48;;;;;;;61.95;20.55;;;;;;;;;;4941721;29;20042;-60
2024/01/20 05:53:14;;;;;;;77.28;26.15;;;;;;;;;;4958720;29;20055;-57
2024/01/20 05:55:39;;;;;;;74.93;22.38;;;;;;;;;;4941156;29;20044;-56
2024/01/20 05:58:05;;;;;;;63.57;20.73;;;;;;;;;;4973288;29;20035;-59
2024/01/20 06:00:31;;;;;;;80.75;23.33;;;;;;;;;;4963815;29;20066;-60
2024/01/20 06:02:56;;;;;;;66.97;21.88;;;;;;;;;;4958495;29;20099;-60
2024/01/20 06:05:22;;;;;;;77.63;23.13;;;;;;;;;;4952677;29;20033;-60
2024/01/20 06:07:47;;;;;;;70.35;23.15;;;;;;;;;;4964438;29;20035;-59
2024/01/20 06:10:13;;;;;;;71.30;23.83;;;;;;;;;;4962970;29;20092;-59
2024/01/20 06:12:38;;;;;;;82.07;26.63;;;;;;;;;;4958026;29;20036;-57
2024/01/20 06:15:04;;;;;;;80.67;24.13;;;;;;;;;;4958272;29;20032;-58
2024/01/20 06:17:30;;;;;;;70.68;22.17;;;;;;;;;;4964957;29;20050;-61
2024/01/20 06:19:55;;;;;;;80.50;25.55;;;;;;;;;;4960195;29;20042;-60
2024/01/20 06:22:21;;;;;;;72.03;23.92;;;;;;;;;;4954073;29;20059;-60
2024/01/20 06:24:46;;;;;;;66.30;25.03;;;;;;;;;;4959917;29;20031;-58
2024/01/20 06:27:12;;;;;;;72.57;23.67;;;;;;;;;;4953354;29;20268;-60
2024/01/20 06:29:41;;;;;;;78.43;25.27;;;;;;;;;;4941007;29;20269;-58
2024/01/20 06:32:06;;;;;;;68.82;21.27;;;;;;;;;;4957381;29;20258;-59
2024/01/20 06:34:32;;;;;;;68.03;22.08;;;;;;;;;;4957691;29;20036;-59
2024/01/20 06:36:57;;;;;;;67.90;22.03;;;;;;;;;;4960639;29;20070;-59
2024/01/20 06:39:23;;;;;;;63.85;20.67;;;;;;;;;;4960017;28;20070;-57
2024/01/20 06:41:50;;;;;;;76.47;24.07;;;;;;;;;;4957810;29;20067;-59
2024/01/20 06:44:16;;;;;;;63.42;16.70;;;;;;;;;;4957405;29;20099;-60
2024/01/20 06:46:42;;;;;;;56.80;18.77;;;;;;;;;;4960008;29;20134;-60
2024/01/20 06:49:08;;;;;;;67.40;20.15;;;;;;;;;;4967244;29;20055;-58
2024/01/20 06:51:33;;;;;;;63.45;21.02;;;;;;;;;;4957583;29;20032;-59
2024/01/20 06:53:58;;;;;;;50.10;15.57;;;;;;;;;;4963232;29;20056;-60
2024/01/20 06:56:24;;;;;;;61.90;19.90;;;;;;;;;;4955877;29;20078;-60
2024/01/20 06:58:51;;;;;;;58.63;17.27;;;;;;;;;;4960527;29;20031;-59
2024/01/20 07:01:17;;;;;;;64.07;21.52;;;;;;;;;;4957636;29;20271;-60
2024/01/20 07:03:42;;;;;;;63.70;19.70;;;;;;;;;;4942606;29;20031;-57
2024/01/20 07:06:08;;;;;;;60.28;19.08;;;;;;;;;;4949471;29;20142;-57
2024/01/20 07:08:34;;;;;;;59.55;19.15;;;;;;;;;;4963946;29;20049;-59
2024/01/20 07:10:59;;;;;;;58.17;19.57;;;;;;;;;;4961950;29;20059;-57
2024/01/20 07:13:25;;;;;;;59.67;19.15;;;;;;;;;;4958690;29;20027;-58
2024/01/20 07:15:50;;;;;;;65.07;21.48;;;;;;;;;;4957022;29;20040;-56
2024/01/20 07:18:16;;;;;;;64.83;19.67;;;;;;;;;;4958028;29;20130;-59
2024/01/20 07:20:41;;;;;;;68.67;19.50;;;;;;;;;;4968218;29;20293;-59
2024/01/20 07:23:07;;;;;;;66.65;19.38;;;;;;;;;;4957173;29;20103;-59
2024/01/20 07:25:36;;;;;;;58.88;18.52;;;;;;;;;;4956874;29;20039;-60
2024/01/20 07:28:04;;;;;;;52.35;17.25;;;;;;;;;;4958783;29;20091;-59
2024/01/20 07:30:30;;;;;;;65.43;19.60;;;;;;;;;;4960949;29;20015;-58
2024/01/20 07:32:58;;;;;;;75.18;24.90;;;;;;;;;;4957770;29;20059;-58
2024/01/20 07:35:24;;;;;;;64.00;23.52;;;;;;;;;;4967077;29;20035;-55
2024/01/20 07:37:49;;;;;;;62.27;20.90;;;;;;;;;;4966418;29;20046;-60
2024/01/20 07:40:14;;;;;;;54.40;16.73;;;;;;;;;;4957944;29;20032;-60
2024/01/20 07:42:40;;;;;;;58.97;20.67;;;;;;;;;;4956804;29;20038;-58
2024/01/20 07:45:05;;;;;;;56.30;18.73;;;;;;;;;;4940060;29;20039;-59
2024/01/20 07:47:31;;;;;;;56.35;18.73;;;;;;;;;;4955543;29;20467;-59
2024/01/20 07:49:56;;;;;;;61.20;18.90;;;;;;;;;;4940317;29;20039;-61
2024/01/20 07:52:22;;;;;;;59.47;18.85;;;;;;;;;;4956589;29;20067;-59
2024/01/20 07:54:47;;;;;;;59.10;19.77;;;;;;;;;;4956499;29;20044;-60
2024/01/20 07:57:12;;;;;;;67.47;22.20;;;;;;;;;;4956495;29;20069;-61
2024/01/20 07:59:38;;;;;;;61.35;19.17;;;;;;;;;;4954657;29;20494;-59
2024/01/20 08:02:04;;;;;;;52.70;19.03;;;;;;;;;;4962087;29;20064;-58
2024/01/20 08:04:29;;;;;;;61.03;19.65;;;;;;;;;;4953848;29;20048;-59
2024/01/20 08:06:55;;;;;;;57.40;20.30;;;;;;;;;;4956316;29;20032;-59
2024/01/20 08:09:20;;;;;;;60.72;20.67;;;;;;;;;;4964015;29;20266;-60
2024/01/20 08:11:46;;;;;;;55.47;19.30;;;;;;;;;;4962037;29;20043;-61
2024/01/20 08:14:11;;;;;;;60.87;21.70;;;;;;;;;;4956327;29;20285;-59
2024/01/20 08:16:37;;;;;;;52.60;18.15;;;;;;;;;;4956119;29;20031;-60
2024/01/20 08:19:02;;;;;;;61.33;19.48;;;;;;;;;;4939844;29;20044;-58
2024/01/20 08:21:28;;;;;;;62.93;19.13;;;;;;;;;;4959256;29;20035;-58
2024/01/20 08:23:54;;;;;;;56.83;20.80;;;;;;;;;;4956676;29;20028;-59
2024/01/20 08:26:20;;;;;;;65.50;19.00;;;;;;;;;;4956680;29;20038;-59
2024/01/20 08:28:45;;;;;;;58.35;19.35;;;;;;;;;;4956729;29;20024;-60
2024/01/20 08:31:11;;;;;;;55.15;18.40;;;;;;;;;;4956351;29;20239;-60
2024/01/20 08:33:36;;;;;;;58.15;19.23;;;;;;;;;;4956173;29;20060;-59
2024/01/20 08:36:01;;;;;;;53.20;18.93;;;;;;;;;;4956394;29;20051;-60
2024/01/20 08:38:27;;;;;;;52.28;17.88;;;;;;;;;;4957334;29;20060;-60
2024/01/20 08:40:53;;;;;;;61.50;19.53;;;;;;;;;;4942136;29;20047;-57
2024/01/20 08:43:20;;;;;;;;;;;;;;;;;;4956862;29;20031;-58
2024/01/20 08:45:45;;;;;;;56.67;19.33;;;;;;;;;;4953871;29;19906;-58
2024/01/20 08:48:11;;;;;;;52.83;19.50;;;;;;;;;;4956420;29;20036;-57
2024/01/20 08:50:38;;;;;;;51.13;17.05;;;;;;;;;;4960938;29;20028;-61
2024/01/20 08:53:04;;;;;;;57.83;17.60;;;;;;;;;;4956600;29;20059;-59
2024/01/20 08:55:29;;;;;;;49.47;17.38;;;;;;;;;;4956079;29;20040;-57
2024/01/20 08:57:56;;;;;;;57.23;21.00;;;;;;;;;;4956116;29;20036;-60
2024/01/20 09:00:22;;;;;;;55.00;18.45;;;;;;;;;;4957157;29;20279;-60
2024/01/20 09:02:47;;;;;;;52.63;19.93;;;;;;;;;;4957597;29;20059;-59
2024/01/20 09:05:17;;;;;;;42.80;15.90;;;;;;;;;;4959646;29;20039;-59
2024/01/20 09:07:43;;;;;;;52.83;18.40;;;;;;;;;;4951860;29;20036;-58
2024/01/20 09:10:09;;;;;;;57.55;18.30;;;;;;;;;;4960107;29;20076;-61
2024/01/20 09:12:35;;;;;;;55.25;21.10;;;;;;;;;;4960686;29;20032;-59
2024/01/20 09:15:00;;;;;;;55.27;20.00;;;;;;;;;;4959031;29;20032;-58
2024/01/20 09:17:26;;;;;;;48.55;18.55;;;;;;;;;;4942738;29;20035;-58
2024/01/20 09:19:52;;;;;;;59.53;18.33;;;;;;;;;;4961042;29;20046;-59
2024/01/20 09:22:17;;;;;;;48.87;16.97;;;;;;;;;;4961146;29;20281;-58
2024/01/20 09:24:43;;;;;;;54.58;18.40;;;;;;;;;;4959306;29;20060;-60
2024/01/20 09:27:09;;;;;;;48.67;18.30;;;;;;;;;;4959063;29;20076;-61
2024/01/20 09:29:34;;;;;;;45.73;18.37;;;;;;;;;;4958701;29;20103;-59
2024/01/20 09:32:00;;;;;;;49.13;18.70;;;;;;;;;;4971483;29;20281;-59
2024/01/20 09:34:26;;;;;;;55.38;19.20;;;;;;;;;;4958890;29;20047;-58
2024/01/20 09:36:51;;;;;;;51.93;19.23;;;;;;;;;;4965266;29;20046;-58
2024/01/20 09:39:17;;;;;;;39.83;15.50;;;;;;;;;;4958957;29;20281;-59
2024/01/20 09:41:43;;;;;;;48.20;17.10;;;;;;;;;;4965829;29;20027;-56
2024/01/20 09:44:11;;;;;;;54.90;18.53;;;;;;;;;;4959864;29;20040;-60
2024/01/20 09:46:37;;;;;;;52.00;18.90;;;;;;;;;;4961703;29;20270;-57
2024/01/20 09:49:02;;;;;;;46.47;18.35;;;;;;;;;;4959038;29;20064;-57
2024/01/20 09:51:31;;;;;;;46.20;17.83;;;;;;;;;;4960247;29;20050;-57
2024/01/20 09:54:00;;;;;;;46.83;18.73;;;;;;;;;;4958735;29;20091;-59
2024/01/20 09:56:26;;;;;;;45.42;18.35;;;;;;;;;;4958146;29;20043;-58
2024/01/20 09:58:53;;;;;;;43.08;17.60;;;;;;;;;;4958808;29;20035;-55
2024/01/20 10:01:18;;;;;;;45.47;16.35;;;;;;;;;;4946531;29;20058;-61
2024/01/20 10:03:44;;;;;;;68.28;19.75;;;;;;;;;;4958733;29;20036;-60
2024/01/20 10:06:09;;;;;;;57.87;21.43;;;;;;;;;;4954941;29;20059;-56
2024/01/20 10:08:35;;;;;;;52.53;17.47;;;;;;;;;;4962341;29;20268;-57
2024/01/20 10:11:01;;;;;;;45.87;17.50;;;;;;;;;;4942533;29;20036;-58
2024/01/20 10:13:27;;;;;;;51.17;18.45;;;;;;;;;;4970013;29;20043;-57
2024/01/20 10:15:53;;;;;;;48.70;18.58;;;;;;;;;;4957909;29;20054;-60
2024/01/20 10:18:19;;;;;;;59.25;20.95;;;;;;;;;;4960386;29;20028;-59
2024/01/20 10:20:44;;;;;;;52.23;16.77;;;;;;;;;;4959494;29;20059;-59
2024/01/20 10:23:09;;;;;;;46.13;17.90;;;;;;;;;;4960830;29;20470;-60
2024/01/20 10:25:35;;;;;;;51.80;19.33;;;;;;;;;;4958040;29;20095;-60
2024/01/20 10:28:00;;;;;;;53.47;20.17;;;;;;;;;;4958200;29;20035;-59
2024/01/20 10:30:26;;;;;;;37.13;15.95;;;;;;;;;;4959137;29;20055;-58
2024/01/20 10:32:52;;;;;;;54.07;18.93;;;;;;;;;;4965289;29;20043;-58
2024/01/20 10:35:17;;;;;;;49.90;16.88;;;;;;;;;;4957830;29;20036;-58
2024/01/20 10:37:44;;;;;;;42.55;16.52;;;;;;;;;;4942458;29;20042;-58
2024/01/20 10:40:13;;;;;;;41.33;16.17;;;;;;;;;;4958211;29;20032;-58
2024/01/20 10:42:42;;;;;;;43.63;16.05;;;;;;;;;;4956995;29;20039;-57
2024/01/20 10:45:17;;;;;;;45.15;18.15;;;;;;;;;;4957761;29;20125;-60
2024/01/20 10:47:55;;;;;;;52.28;17.50;;;;;;;;;;4957315;29;20043;-57
2024/01/20 10:50:23;;;;;;;45.28;16.42;;;;;;;;;;4959079;29;20036;-58
2024/01/20 10:52:49;;;;;;;43.95;17.05;;;;;;;;;;4958879;29;20031;-60
2024/01/20 10:55:15;;;;;;;35.92;14.90;;;;;;;;;;4957404;29;20035;-60
2024/01/20 10:57:41;;;;;;;46.00;17.70;;;;;;;;;;4962682;29;20036;-56
2024/01/20 11:00:10;;;;;;;41.47;16.17;;;;;;;;;;4957858;29;20265;-58
2024/01/20 11:02:36;;;;;;;47.83;18.10;;;;;;;;;;4956615;29;20032;-58
2024/01/20 11:05:01;;;;;;;49.03;19.85;;;;;;;;;;4957196;29;20043;-60
2024/01/20 11:07:28;;;;;;;43.33;17.58;;;;;;;;;;4957406;29;20035;-60
2024/01/20 11:09:57;;;;;;;49.30;18.33;;;;;;;;;;4957016;29;20044;-57
2024/01/20 11:12:23;;;;;;;54.92;19.75;;;;;;;;;;4957841;29;20040;-59
2024/01/20 11:14:53;;;;;;;39.25;15.65;;;;;;;;;;4957132;29;20036;-60
2024/01/20 11:17:18;;;;;;;50.15;18.13;;;;;;;;;;4948419;29;20103;-60
2024/01/20 11:19:44;;;;;;;47.13;17.55;;;;;;;;;;4957399;29;20032;-60
2024/01/20 11:22:29;;;;;;;41.45;16.65;;;;;;;;;;4957007;29;20043;-59
2024/01/20 11:24:56;;;;;;;46.38;17.67;;;;;;;;;;4946229;29;20046;-60
2024/01/20 11:27:22;;;;;;;40.30;16.63;;;;;;;;;;4956862;29;20040;-60
2024/01/20 11:29:47;;;;;;;45.73;16.43;;;;;;;;;;4956548;29;20091;-60
2024/01/20 11:32:12;;;;;;;36.10;14.77;;;;;;;;;;4966910;29;20035;-59
2024/01/20 11:34:40;;;;;;;43.50;16.60;;;;;;;;;;4961400;29;20289;-59
2024/01/20 11:37:06;;;;;;;37.55;16.67;;;;;;;;;;4956836;29;20047;-61
2024/01/20 11:39:32;;;;;;;40.45;15.32;;;;;;;;;;4956714;29;20036;-60
2024/01/20 11:41:58;;;;;;;34.20;15.47;;;;;;;;;;4964092;29;20043;-58
2024/01/20 11:44:25;;;;;;;39.63;14.30;;;;;;;;;;4960806;29;20028;-61
2024/01/20 11:46:51;;;;;;;33.05;15.90;;;;;;;;;;4956619;29;20294;-63
2024/01/20 11:49:16;;;;;;;32.03;14.43;;;;;;;;;;4939838;29;20046;-60
2024/01/20 11:51:42;;;;;;;31.02;14.60;;;;;;;;;;4957934;29;20046;-60
2024/01/20 11:54:08;;;;;;;37.58;17.48;;;;;;;;;;4940361;29;20039;-63
2024/01/20 11:56:34;;;;;;;32.17;15.65;;;;;;;;;;4956667;29;20067;-60
2024/01/20 11:58:59;;;;;;;34.00;14.57;;;;;;;;;;4956822;29;20059;-60
2024/01/20 12:01:25;;;;;;;35.72;15.50;;;;;;;;;;4958008;29;20024;-61
2024/01/20 12:03:52;;;;;;;32.23;15.27;;;;;;;;;;4962720;29;20051;-60
2024/01/20 12:06:18;;;;;;;36.17;16.27;;;;;;;;;;4948281;29;20269;-61
2024/01/20 12:08:44;;;;;;;36.93;15.90;;;;;;;;;;4959348;29;20345;-61
2024/01/20 12:11:20;;;;;;;32.73;14.97;;;;;;;;;;4956329;29;20254;-61
2024/01/20 12:13:46;;;;;;;33.67;13.15;;;;;;;;;;4966870;29;20262;-60
2024/01/20 12:16:12;;;;;;;29.95;13.65;;;;;;;;;;4957629;29;20125;-58
2024/01/20 12:18:37;;;;;;;36.83;16.23;;;;;;;;;;4956601;29;20035;-60
2024/01/20 12:21:03;;;;;;;28.92;13.40;;;;;;;;;;4939598;29;20254;-60
2024/01/20 12:23:28;;;;;;;33.67;14.30;;;;;;;;;;4940235;29;20028;-60
2024/01/20 12:25:56;;;;;;;36.08;14.32;;;;;;;;;;4952821;29;20032;-60
2024/01/20 12:28:22;;;;;;;33.08;15.15;;;;;;;;;;4938830;29;20040;-60
2024/01/20 12:30:47;;;;;;;34.22;14.77;;;;;;;;;;4956193;29;20036;-60
2024/01/20 12:33:13;;;;;;;27.25;12.52;;;;;;;;;;4960322;29;20042;-61
2024/01/20 12:35:38;;;;;;;32.63;13.93;;;;;;;;;;4941029;29;20039;-62
2024/01/20 12:38:04;;;;;;;26.53;12.20;;;;;;;;;;4942197;29;20040;-61
2024/01/20 12:40:29;;;;;;;36.27;13.67;;;;;;;;;;4960370;29;20032;-59
2024/01/20 12:42:55;;;;;;;34.35;14.32;;;;;;;;;;4966634;29;20035;-61
2024/01/20 12:45:21;;;;;;;28.95;13.48;;;;;;;;;;4975284;29;20039;-60
2024/01/20 12:47:48;;;;;;;28.83;14.00;;;;;;;;;;4959932;29;20099;-59
2024/01/20 12:50:13;;;;;;;30.92;11.85;;;;;;;;;;4960132;29;20039;-60
2024/01/20 12:52:39;;;;;;;25.45;12.05;;;;;;;;;;4961959;29;20039;-60
2024/01/20 12:55:06;;;;;;;26.47;12.30;;;;;;;;;;4961698;29;20043;-61
2024/01/20 12:57:31;;;;;;;;;;;;;;;;;;4959914;29;20023;-61
2024/01/20 12:59:57;;;;;;;26.07;11.80;;;;;;;;;;4959097;29;19933;-60
2024/01/20 13:02:22;;;;;;;23.50;11.25;;;;;;;;;;4960580;29;20103;-58
2024/01/20 13:04:49;;;;;;;23.92;12.02;;;;;;;;;;4968146;29;20044;-60
2024/01/20 13:07:15;;;;;;;21.50;10.43;;;;;;;;;;4949863;29;20051;-60
2024/01/20 13:09:40;;;;;;;23.30;11.03;;;;;;;;;;4958953;29;20281;-61
2024/01/20 13:12:06;;;;;;;21.77;10.73;;;;;;;;;;4962074;29;20299;-59
2024/01/20 13:14:31;;;;;;;23.35;10.82;;;;;;;;;;4968193;29;20065;-58
2024/01/20 13:16:57;;;;;;;26.52;11.70;;;;;;;;;;4959297;29;20063;-60
2024/01/20 13:19:22;;;;;;;24.87;11.67;;;;;;;;;;4959336;29;20074;-61
2024/01/20 13:21:48;;;;;;;24.30;10.45;;;;;;;;;;4959249;29;20024;-60
2024/01/20 13:24:14;;;;;;;23.63;11.17;;;;;;;;;;4966373;29;20043;-60
2024/01/20 13:26:39;;;;;;;23.42;10.68;;;;;;;;;;4959111;29;20265;-59
2024/01/20 13:29:05;;;;;;;28.17;11.20;;;;;;;;;;4959226;29;20035;-60
2024/01/20 13:31:31;;;;;;;24.37;11.27;;;;;;;;;;4958967;29;20047;-60
2024/01/20 13:33:57;;;;;;;22.67;10.63;;;;;;;;;;4960188;29;20043;-59
2024/01/20 13:36:22;;;;;;;20.55;10.60;;;;;;;;;;4960241;29;20345;-61
2024/01/20 13:38:48;;;;;;;23.55;9.82;;;;;;;;;;4958831;29;20047;-60
2024/01/20 13:41:15;;;;;;;20.38;9.52;;;;;;;;;;4958991;29;20086;-60
2024/01/20 13:43:40;;;;;;;17.53;9.20;;;;;;;;;;4943643;29;20032;-60
2024/01/20 13:46:05;;;;;;;19.33;9.40;;;;;;;;;;4961285;29;20345;-60
2024/01/20 13:48:31;;;;;;;21.63;9.88;;;;;;;;;;4941664;29;20032;-60
2024/01/20 13:50:56;;;;;;;19.60;9.30;;;;;;;;;;4958362;29;20039;-60
2024/01/20 13:53:24;;;;;;;19.83;9.50;;;;;;;;;;4966540;29;20051;-60
2024/01/20 13:55:49;;;;;;;21.97;9.60;;;;;;;;;;4962961;29;20036;-61
2024/01/20 13:58:15;;;;;;;20.67;10.00;;;;;;;;;;4941409;29;20269;-59
2024/01/20 14:00:41;;;;;;;22.87;8.93;;;;;;;;;;4957505;29;20270;-60
2024/01/20 14:03:06;;;;;;;19.70;9.27;;;;;;;;;;4958701;29;20023;-61
2024/01/20 14:05:32;;;;;;;23.92;9.60;;;;;;;;;;4960594;29;20140;-61
2024/01/20 14:07:58;;;;;;;18.73;8.73;;;;;;;;;;4958469;29;20023;-61
2024/01/20 14:10:23;;;;;;;18.13;8.57;;;;;;;;;;4958426;29;20334;-60